Terminal Aerodrome Forecast
Issued by NWS

Home | Current Version | Previous Version | Text Only | Print | Product List | Glossary On
Versions: 1 2 3 4 5 6 7 8 9 10 11 12 13 14 15
000
FTUS46 KOTX 172328
TAFPUW
TAF
KPUW 172328Z 1800/1824 27006KT P6SM -RA SCT010 OVC015
      TEMPO 1800/1804 P6SM -RA BKN009 OVC015
     FM180500 24016G22KT P6SM -SHRA BKN015
     FM181200 24019G26KT P6SM VCSH SCT009 BKN025
     FM181400 24027G33KT P6SM SCT025 BKN040
     FM182100 26019G26KT P6SM SCT050 BKN150=

USA.gov is the U.S. government's official web portal to all federal, state and local government web resources and services.